Terminal Aerodrome Forecast
Issued by NWS Jackson, MS

Home | Current Version | Previous Version | Text Only | Print | Product List | Glossary On
Versions: 1 2 3 4 5 6 7 8 9 10 11 12 13 14 15 16
000
FTUS44 KJAN 020100 AAA
TAFJAN
TAF AMD
KJAN 020147Z 0202/0224 10009KT P6SM BKN013 OVC019
     FM020300 07003KT 4SM -RA BR OVC007
     FM020500 06003KT 1 1/2SM BR OVC003
     FM020900 06003KT 1/2SM FG OVC003
     FM021100 03003KT 1 1/2SM BR OVC003
     FM021800 03005KT 4SM BR OVC003=

USA.gov is the U.S. government's official web portal to all federal, state and local government web resources and services.